Time;durP1;ratioP1;P1;durP2;ratioP2;P2;SDS_P1;SDS_P2;PMS_P1;PMS_P2;Temp;Humidity;BMP_temperature;BMP_pressure;BME280_temperature;BME280_humidity;BME280_pressure;Samples;Min_cycle;Max_cycle;Signal;HPM_P1;HPM_P2
2024/03/19 00:00:25;;;;;;;5.90;3.47;;;;;;;;;;2064146;28;20485;-49
2024/03/19 00:01:26;;;;;;;6.07;2.70;;;;;;;;;;2061481;28;20065;-50
2024/03/19 00:02:29;;;;;;;5.47;3.25;;;;;;;;;;2062663;28;20444;-50
2024/03/19 00:03:30;;;;;;;5.63;2.70;;;;;;;;;;2062913;28;20015;-49
2024/03/19 00:04:31;;;;;;;5.82;2.88;;;;;;;;;;2060732;28;20015;-48
2024/03/19 00:05:33;;;;;;;3.88;3.03;;;;;;;;;;2062460;28;20026;-48
2024/03/19 00:06:35;;;;;;;7.00;3.15;;;;;;;;;;2063532;28;20049;-49
2024/03/19 00:07:37;;;;;;;5.05;2.88;;;;;;;;;;2061154;28;20054;-50
2024/03/19 00:08:38;;;;;;;5.60;3.40;;;;;;;;;;2060475;28;20674;-49
2024/03/19 00:09:39;;;;;;;8.45;3.42;;;;;;;;;;2061979;28;20014;-49
2024/03/19 00:10:40;;;;;;;6.55;2.90;;;;;;;;;;2060707;28;20026;-50
2024/03/19 00:11:42;;;;;;;4.80;2.90;;;;;;;;;;2064109;28;20054;-47
2024/03/19 00:12:44;;;;;;;6.60;3.15;;;;;;;;;;2061221;28;20058;-49
2024/03/19 00:13:45;;;;;;;5.68;2.97;;;;;;;;;;2060075;28;20089;-49
2024/03/19 00:14:46;;;;;;;8.55;3.28;;;;;;;;;;2059819;28;20031;-50
2024/03/19 00:15:51;;;;;;;5.70;3.30;;;;;;;;;;2062732;28;20092;-50
2024/03/19 00:16:52;;;;;;;6.13;3.25;;;;;;;;;;2060788;28;20027;-50
2024/03/19 00:17:53;;;;;;;9.60;3.35;;;;;;;;;;2058645;28;20086;-49
2024/03/19 00:18:55;;;;;;;5.45;2.95;;;;;;;;;;2057122;28;20355;-47
2024/03/19 00:19:56;;;;;;;8.02;3.65;;;;;;;;;;2061185;28;20113;-49
2024/03/19 00:20:57;;;;;;;7.53;3.50;;;;;;;;;;2057642;28;20359;-48
2024/03/19 00:21:58;;;;;;;6.38;3.63;;;;;;;;;;2061878;28;20073;-49
2024/03/19 00:23:00;;;;;;;5.75;3.10;;;;;;;;;;2060707;28;20030;-49
2024/03/19 00:24:02;;;;;;;5.45;3.25;;;;;;;;;;2058619;28;20027;-50
2024/03/19 00:25:07;;;;;;;7.03;3.13;;;;;;;;;;2058800;28;20031;-49
2024/03/19 00:26:08;;;;;;;4.53;2.88;;;;;;;;;;2060604;28;20433;-50
2024/03/19 00:27:09;;;;;;;5.72;3.13;;;;;;;;;;2058058;28;20019;-49
2024/03/19 00:28:12;;;;;;;7.47;3.63;;;;;;;;;;2061687;28;20053;-50
2024/03/19 00:29:13;;;;;;;6.88;3.22;;;;;;;;;;2057196;28;20033;-50
2024/03/19 00:30:14;;;;;;;6.07;3.00;;;;;;;;;;2060894;28;20053;-49
2024/03/19 00:31:16;;;;;;;5.68;3.13;;;;;;;;;;2059962;28;20033;-48
2024/03/19 00:32:17;;;;;;;6.03;3.67;;;;;;;;;;2063406;28;20041;-51
2024/03/19 00:33:18;;;;;;;7.00;3.75;;;;;;;;;;2059694;28;20113;-48
2024/03/19 00:34:19;;;;;;;5.53;3.20;;;;;;;;;;2058733;28;20113;-50
2024/03/19 00:35:21;;;;;;;6.97;3.20;;;;;;;;;;2058861;28;20397;-49
2024/03/19 00:36:22;;;;;;;8.10;3.28;;;;;;;;;;2059729;28;20523;-50
2024/03/19 00:37:23;;;;;;;5.35;3.42;;;;;;;;;;2060370;28;20025;-49
2024/03/19 00:38:26;;;;;;;5.82;3.40;;;;;;;;;;2062267;28;20023;-48
2024/03/19 00:39:28;;;;;;;6.30;2.95;;;;;;;;;;2058740;28;20567;-51
2024/03/19 00:40:31;;;;;;;7.75;3.42;;;;;;;;;;2059270;28;20025;-49
2024/03/19 00:41:32;;;;;;;6.53;3.80;;;;;;;;;;2062515;28;20030;-49
2024/03/19 00:42:33;;;;;;;5.40;3.42;;;;;;;;;;2061948;28;20034;-49
2024/03/19 00:43:35;;;;;;;5.45;3.45;;;;;;;;;;2061432;28;20061;-48
2024/03/19 00:44:36;;;;;;;5.88;3.53;;;;;;;;;;2060136;28;20504;-49
2024/03/19 00:45:37;;;;;;;8.65;3.28;;;;;;;;;;2058938;28;20106;-49
2024/03/19 00:46:38;;;;;;;6.75;3.42;;;;;;;;;;2059898;28;20023;-47
2024/03/19 00:47:40;;;;;;;4.90;3.50;;;;;;;;;;2059287;28;20027;-50
2024/03/19 00:48:41;;;;;;;6.95;3.55;;;;;;;;;;2059242;28;20133;-47
2024/03/19 00:49:42;;;;;;;5.82;3.28;;;;;;;;;;2060273;28;20473;-49
2024/03/19 00:50:45;;;;;;;5.05;3.05;;;;;;;;;;2062897;28;20416;-49
2024/03/19 00:51:46;;;;;;;7.20;3.17;;;;;;;;;;2061127;28;20548;-48
2024/03/19 00:52:47;;;;;;;6.65;3.40;;;;;;;;;;2059208;28;20552;-47
2024/03/19 00:53:49;;;;;;;5.25;3.40;;;;;;;;;;2063354;28;20022;-47
2024/03/19 00:54:50;;;;;;;6.85;3.78;;;;;;;;;;2058240;28;20462;-48
2024/03/19 00:55:51;;;;;;;6.15;3.75;;;;;;;;;;2049415;28;20462;-48
2024/03/19 00:56:52;;;;;;;3.85;3.22;;;;;;;;;;2059952;28;20118;-49
2024/03/19 00:57:54;;;;;;;8.70;4.03;;;;;;;;;;2062486;28;20019;-48
2024/03/19 00:58:55;;;;;;;7.53;3.67;;;;;;;;;;2063757;28;20038;-48
2024/03/19 00:59:56;;;;;;;7.35;3.38;;;;;;;;;;2060433;28;20023;-47
2024/03/19 01:00:58;;;;;;;6.03;3.15;;;;;;;;;;2059646;28;20034;-48
2024/03/19 01:02:00;;;;;;;6.10;4.13;;;;;;;;;;2059411;28;20026;-48
2024/03/19 01:03:02;;;;;;;7.90;3.85;;;;;;;;;;2062550;28;20480;-48
2024/03/19 01:04:06;;;;;;;7.47;3.40;;;;;;;;;;2060550;28;20018;-48
2024/03/19 01:05:11;;;;;;;5.18;3.40;;;;;;;;;;2057429;28;20520;-49
2024/03/19 01:06:12;;;;;;;7.45;3.45;;;;;;;;;;2059279;28;20024;-48
2024/03/19 01:07:13;;;;;;;5.47;3.70;;;;;;;;;;2061128;28;20453;-48
2024/03/19 01:08:15;;;;;;;5.63;3.17;;;;;;;;;;2064317;28;20430;-48
2024/03/19 01:09:18;;;;;;;5.68;3.67;;;;;;;;;;2061470;28;20473;-46
2024/03/19 01:10:19;;;;;;;6.35;3.78;;;;;;;;;;2059484;28;20073;-48
2024/03/19 01:11:20;;;;;;;5.95;4.00;;;;;;;;;;2061491;28;20053;-47
2024/03/19 01:12:22;;;;;;;9.80;4.00;;;;;;;;;;2061801;28;20014;-47
2024/03/19 01:13:23;;;;;;;5.85;3.85;;;;;;;;;;2059263;28;20089;-48
2024/03/19 01:14:25;;;;;;;7.90;3.97;;;;;;;;;;2057425;28;20018;-47
2024/03/19 01:15:26;;;;;;;5.70;3.63;;;;;;;;;;2059496;28;20034;-47
2024/03/19 01:16:28;;;;;;;5.18;3.60;;;;;;;;;;2059115;28;20043;-48
2024/03/19 01:17:29;;;;;;;5.05;3.40;;;;;;;;;;2060433;28;20019;-48
2024/03/19 01:18:31;;;;;;;6.18;3.60;;;;;;;;;;2062184;28;20033;-48
2024/03/19 01:19:32;;;;;;;6.50;3.75;;;;;;;;;;2060905;28;20015;-47
2024/03/19 01:20:33;;;;;;;6.20;3.28;;;;;;;;;;2058819;28;20078;-48
2024/03/19 01:21:35;;;;;;;6.40;3.40;;;;;;;;;;2062295;28;20091;-49
2024/03/19 01:22:37;;;;;;;6.85;3.92;;;;;;;;;;2058169;28;20014;-49
2024/03/19 01:23:39;;;;;;;4.50;3.45;;;;;;;;;;2059241;28;20031;-48
2024/03/19 01:24:41;;;;;;;6.35;3.72;;;;;;;;;;2058024;28;20495;-51
2024/03/19 01:25:42;;;;;;;5.30;3.45;;;;;;;;;;2057377;28;20034;-47
2024/03/19 01:26:43;;;;;;;6.47;3.20;;;;;;;;;;2063000;28;20038;-48
2024/03/19 01:27:45;;;;;;;5.28;3.33;;;;;;;;;;2060518;28;20038;-49
2024/03/19 01:28:46;;;;;;;6.82;3.50;;;;;;;;;;2061315;28;20442;-48
2024/03/19 01:29:48;;;;;;;6.90;3.47;;;;;;;;;;2061715;28;20390;-48
2024/03/19 01:30:49;;;;;;;5.18;3.67;;;;;;;;;;2061798;28;20031;-48
2024/03/19 01:31:50;;;;;;;6.80;3.78;;;;;;;;;;2060120;28;20109;-47
2024/03/19 01:32:52;;;;;;;7.20;3.70;;;;;;;;;;2057727;28;20061;-47
2024/03/19 01:33:53;;;;;;;7.97;3.78;;;;;;;;;;2058584;28;20038;-48
2024/03/19 01:34:55;;;;;;;5.88;4.03;;;;;;;;;;2062718;28;20106;-51
2024/03/19 01:35:57;;;;;;;5.00;3.40;;;;;;;;;;2056753;28;20031;-47
2024/03/19 01:36:59;;;;;;;6.45;3.90;;;;;;;;;;2060550;28;20370;-47
2024/03/19 01:38:00;;;;;;;5.22;3.33;;;;;;;;;;2059330;28;20026;-48
2024/03/19 01:39:02;;;;;;;6.65;3.67;;;;;;;;;;2059912;28;20054;-47
2024/03/19 01:40:04;;;;;;;6.90;3.70;;;;;;;;;;2061571;28;20030;-47
2024/03/19 01:41:06;;;;;;;8.32;3.78;;;;;;;;;;2062796;28;20026;-48
2024/03/19 01:42:08;;;;;;;6.47;3.40;;;;;;;;;;2059872;28;20019;-47
2024/03/19 01:43:15;;;;;;;5.85;3.50;;;;;;;;;;2063333;28;20084;-47
2024/03/19 01:44:17;;;;;;;6.60;3.67;;;;;;;;;;2061515;28;20028;-47
2024/03/19 01:45:22;;;;;;;5.38;3.70;;;;;;;;;;2060591;28;20014;-48
2024/03/19 01:46:27;;;;;;;6.50;3.97;;;;;;;;;;2059963;28;20080;-47
2024/03/19 01:47:29;;;;;;;6.32;3.38;;;;;;;;;;2058920;28;20018;-46
2024/03/19 01:48:31;;;;;;;8.13;4.10;;;;;;;;;;2058267;28;20030;-47
2024/03/19 01:49:33;;;;;;;5.53;3.42;;;;;;;;;;2056657;28;20390;-47
2024/03/19 01:50:35;;;;;;;6.65;4.03;;;;;;;;;;2061513;28;20031;-47
2024/03/19 01:51:36;;;;;;;8.07;4.40;;;;;;;;;;2062050;28;20028;-48
2024/03/19 01:53:04;;;;;;;7.07;3.75;;;;;;;;;;2058600;28;20109;-47
2024/03/19 01:54:06;;;;;;;6.72;3.83;;;;;;;;;;2060837;28;20105;-47
2024/03/19 01:55:08;;;;;;;8.43;3.83;;;;;;;;;;2059658;28;20027;-48
2024/03/19 01:56:09;;;;;;;7.97;3.97;;;;;;;;;;2063436;28;20069;-48
2024/03/19 01:57:10;;;;;;;7.63;3.78;;;;;;;;;;2063617;28;20059;-52
2024/03/19 01:58:12;;;;;;;5.90;3.13;;;;;;;;;;2058957;28;20047;-53
2024/03/19 01:59:13;;;;;;;6.18;3.58;;;;;;;;;;2058087;28;20047;-53
2024/03/19 02:00:15;;;;;;;5.43;3.67;;;;;;;;;;2059167;28;20401;-52
2024/03/19 02:01:17;;;;;;;5.35;3.60;;;;;;;;;;2059856;28;20548;-52
2024/03/19 02:02:30;;;;;;;10.27;4.05;;;;;;;;;;2059209;28;20037;-48
2024/03/19 02:03:31;;;;;;;7.10;4.00;;;;;;;;;;2061321;28;20030;-47
2024/03/19 02:04:33;;;;;;;6.03;3.75;;;;;;;;;;2060652;28;20106;-48
2024/03/19 02:05:34;;;;;;;5.82;3.40;;;;;;;;;;2062069;28;20027;-48
2024/03/19 02:06:36;;;;;;;7.10;3.75;;;;;;;;;;2058863;28;20039;-46
2024/03/19 02:07:37;;;;;;;7.55;3.75;;;;;;;;;;2056890;28;20438;-47
2024/03/19 02:08:38;;;;;;;5.93;3.97;;;;;;;;;;2058426;28;20034;-48
2024/03/19 02:09:40;;;;;;;7.25;4.18;;;;;;;;;;2057830;28;20031;-48
2024/03/19 02:10:43;;;;;;;5.95;3.97;;;;;;;;;;2054607;28;20034;-47
2024/03/19 02:11:44;;;;;;;6.95;4.32;;;;;;;;;;2058457;28;20493;-48
2024/03/19 02:12:45;;;;;;;4.70;3.58;;;;;;;;;;2060822;28;20066;-47
2024/03/19 02:13:46;;;;;;;6.63;3.78;;;;;;;;;;2060083;28;20022;-48
2024/03/19 02:14:48;;;;;;;5.38;3.83;;;;;;;;;;2060728;28;20604;-48
2024/03/19 02:15:50;;;;;;;7.00;3.90;;;;;;;;;;2063159;28;20030;-49
2024/03/19 02:16:51;;;;;;;6.80;3.50;;;;;;;;;;2061369;28;20486;-47
2024/03/19 02:17:52;;;;;;;6.22;3.20;;;;;;;;;;2058240;28;20057;-47
2024/03/19 02:19:01;;;;;;;6.50;3.38;;;;;;;;;;2060141;28;20018;-47
2024/03/19 02:20:12;;;;;;;6.80;3.85;;;;;;;;;;2057655;28;20029;-48
2024/03/19 02:21:13;;;;;;;5.32;3.35;;;;;;;;;;2058941;28;20023;-47
2024/03/19 02:22:15;;;;;;;5.45;3.40;;;;;;;;;;2060503;28;20058;-49
2024/03/19 02:23:18;;;;;;;6.18;3.75;;;;;;;;;;2057986;28;20033;-48
2024/03/19 02:24:19;;;;;;;4.85;3.22;;;;;;;;;;2061332;28;20077;-47
2024/03/19 02:25:20;;;;;;;7.35;3.55;;;;;;;;;;2057907;28;20131;-47
2024/03/19 02:26:22;;;;;;;5.00;3.00;;;;;;;;;;2062304;28;20038;-52
2024/03/19 02:27:23;;;;;;;7.22;3.42;;;;;;;;;;2057919;28;20031;-52
2024/03/19 02:28:24;;;;;;;6.72;3.75;;;;;;;;;;2058052;28;20022;-53
2024/03/19 02:29:27;;;;;;;5.93;3.08;;;;;;;;;;2056839;28;20050;-55
2024/03/19 02:30:28;;;;;;;6.97;3.72;;;;;;;;;;2059735;28;20068;-53
2024/03/19 02:31:29;;;;;;;6.65;3.20;;;;;;;;;;2059131;28;20489;-52
2024/03/19 02:32:32;;;;;;;6.85;3.97;;;;;;;;;;2061040;28;20037;-49
2024/03/19 02:33:33;;;;;;;7.07;3.97;;;;;;;;;;2060687;28;20402;-52
2024/03/19 02:34:35;;;;;;;6.25;3.83;;;;;;;;;;2059823;28;20022;-54
2024/03/19 02:35:36;;;;;;;4.80;3.60;;;;;;;;;;2061393;28;20144;-54
2024/03/19 02:36:38;;;;;;;6.22;3.20;;;;;;;;;;2061077;28;20067;-53
2024/03/19 02:37:39;;;;;;;5.45;3.15;;;;;;;;;;2063000;28;20117;-48
2024/03/19 02:38:41;;;;;;;6.78;3.20;;;;;;;;;;2059144;28;20030;-49
2024/03/19 02:39:42;;;;;;;5.53;3.00;;;;;;;;;;2051103;28;20090;-47
2024/03/19 02:40:44;;;;;;;5.88;3.63;;;;;;;;;;2062176;28;20033;-46
2024/03/19 02:41:45;;;;;;;5.93;3.50;;;;;;;;;;2060271;28;20090;-49
2024/03/19 02:42:47;;;;;;;5.85;3.85;;;;;;;;;;2059847;28;20397;-49
2024/03/19 02:43:48;;;;;;;6.35;3.92;;;;;;;;;;2059079;28;20406;-49
2024/03/19 02:44:49;;;;;;;8.68;4.03;;;;;;;;;;2062646;28;20030;-50
2024/03/19 02:45:51;;;;;;;8.20;3.50;;;;;;;;;;2057086;28;20125;-50
2024/03/19 02:46:52;;;;;;;5.60;3.88;;;;;;;;;;2059185;28;20037;-50
2024/03/19 02:47:53;;;;;;;5.85;3.90;;;;;;;;;;2059218;28;20023;-47
2024/03/19 02:48:54;;;;;;;5.45;3.20;;;;;;;;;;2060944;28;20485;-50
2024/03/19 02:49:56;;;;;;;5.22;3.38;;;;;;;;;;2053324;28;20066;-51
2024/03/19 02:50:57;;;;;;;7.30;3.88;;;;;;;;;;2053152;28;20094;-47
2024/03/19 02:51:58;;;;;;;7.50;4.05;;;;;;;;;;2061169;28;20030;-47
2024/03/19 02:52:59;;;;;;;5.82;3.50;;;;;;;;;;2058882;28;20034;-48
2024/03/19 02:54:01;;;;;;;5.95;3.15;;;;;;;;;;2056311;28;20027;-49
2024/03/19 02:55:02;;;;;;;5.35;3.47;;;;;;;;;;2057519;28;20478;-50
2024/03/19 02:56:04;;;;;;;4.57;3.35;;;;;;;;;;2060695;28;20543;-50
2024/03/19 02:57:05;;;;;;;6.70;3.60;;;;;;;;;;2060484;28;20030;-49
2024/03/19 02:58:06;;;;;;;5.75;4.40;;;;;;;;;;2061663;28;20028;-49
2024/03/19 02:59:08;;;;;;;5.70;3.25;;;;;;;;;;2053724;28;20058;-49
2024/03/19 03:00:09;;;;;;;5.97;3.83;;;;;;;;;;2054826;28;20102;-50
2024/03/19 03:01:11;;;;;;;6.25;3.90;;;;;;;;;;2061053;28;20034;-49
2024/03/19 03:02:12;;;;;;;4.97;3.45;;;;;;;;;;2058003;28;20023;-50
2024/03/19 03:03:13;;;;;;;7.18;3.83;;;;;;;;;;2057510;28;20093;-49
2024/03/19 03:04:15;;;;;;;6.72;3.22;;;;;;;;;;2060813;28;20026;-49
2024/03/19 03:05:16;;;;;;;7.78;3.67;;;;;;;;;;2060618;28;20055;-50
2024/03/19 03:06:18;;;;;;;6.43;3.70;;;;;;;;;;2060641;28;20045;-49
2024/03/19 03:07:19;;;;;;;5.13;3.40;;;;;;;;;;2058900;28;20054;-47
2024/03/19 03:08:21;;;;;;;4.22;3.05;;;;;;;;;;2059092;28;20473;-48
2024/03/19 03:09:22;;;;;;;4.65;3.40;;;;;;;;;;2061384;28;20022;-48
2024/03/19 03:10:23;;;;;;;6.22;4.07;;;;;;;;;;2060429;28;20030;-48
2024/03/19 03:11:25;;;;;;;5.95;3.35;;;;;;;;;;2057098;28;20030;-48
2024/03/19 03:12:26;;;;;;;5.72;3.58;;;;;;;;;;2057762;28;20027;-47
2024/03/19 03:13:28;;;;;;;7.38;3.35;;;;;;;;;;2057783;28;20026;-47
2024/03/19 03:14:29;;;;;;;5.95;3.30;;;;;;;;;;2060209;28;20431;-47
2024/03/19 03:15:30;;;;;;;5.25;3.67;;;;;;;;;;2062356;28;20118;-47
2024/03/19 03:16:34;;;;;;;5.85;3.08;;;;;;;;;;2062155;28;20026;-48
2024/03/19 03:17:37;;;;;;;4.93;3.47;;;;;;;;;;2061247;28;20026;-47
2024/03/19 03:18:38;;;;;;;5.70;3.80;;;;;;;;;;2057296;28;20025;-47
2024/03/19 03:19:40;;;;;;;5.53;3.72;;;;;;;;;;2064071;28;20109;-48
2024/03/19 03:20:41;;;;;;;5.90;3.60;;;;;;;;;;2060478;28;20019;-48
2024/03/19 03:21:42;;;;;;;6.70;4.05;;;;;;;;;;2060576;28;20011;-47
2024/03/19 03:22:44;;;;;;;4.85;3.70;;;;;;;;;;2060284;28;20022;-47
2024/03/19 03:23:45;;;;;;;5.85;3.97;;;;;;;;;;2063155;28;20047;-47
2024/03/19 03:24:46;;;;;;;5.93;3.83;;;;;;;;;;2063028;28;20030;-48
2024/03/19 03:25:48;;;;;;;5.78;3.55;;;;;;;;;;2060411;28;20034;-48
2024/03/19 03:26:49;;;;;;;7.13;4.20;;;;;;;;;;2061782;28;20023;-48
2024/03/19 03:27:51;;;;;;;6.80;4.28;;;;;;;;;;2060499;28;20034;-47
2024/03/19 03:28:54;;;;;;;6.15;3.88;;;;;;;;;;2062311;28;20027;-47
2024/03/19 03:29:55;;;;;;;6.80;3.72;;;;;;;;;;2060797;28;20027;-47
2024/03/19 03:30:56;;;;;;;7.35;3.63;;;;;;;;;;2059889;28;20106;-48
2024/03/19 03:31:58;;;;;;;5.03;4.05;;;;;;;;;;2058027;28;20019;-49
2024/03/19 03:32:59;;;;;;;6.22;3.45;;;;;;;;;;2062968;28;20028;-50
2024/03/19 03:34:00;;;;;;;6.47;3.92;;;;;;;;;;2060662;28;20027;-48
2024/03/19 03:35:03;;;;;;;7.07;3.80;;;;;;;;;;2059725;28;20022;-49
2024/03/19 03:36:04;;;;;;;7.35;3.80;;;;;;;;;;2062695;28;20026;-48
2024/03/19 03:37:09;;;;;;;6.50;3.72;;;;;;;;;;2060713;28;20038;-49
2024/03/19 03:38:11;;;;;;;6.43;3.30;;;;;;;;;;2060536;28;20021;-49
2024/03/19 03:39:12;;;;;;;5.80;4.00;;;;;;;;;;2053416;28;20167;-49
2024/03/19 03:41:18;;;;;;;6.25;3.92;;;;;;;;;;2061955;28;20088;-49
2024/03/19 03:42:19;;;;;;;6.63;4.05;;;;;;;;;;2062321;28;20457;-49
2024/03/19 03:43:21;;;;;;;6.93;4.00;;;;;;;;;;2060989;28;20126;-50
2024/03/19 03:44:22;;;;;;;8.77;4.00;;;;;;;;;;2057122;28;20494;-48
2024/03/19 03:45:24;;;;;;;5.35;3.45;;;;;;;;;;2061767;28;20507;-50
2024/03/19 03:46:25;;;;;;;5.05;3.47;;;;;;;;;;2060910;28;20010;-49
2024/03/19 03:47:27;;;;;;;6.07;3.20;;;;;;;;;;2060891;28;20113;-49
2024/03/19 03:48:29;;;;;;;6.07;3.70;;;;;;;;;;2063313;28;20357;-49
2024/03/19 03:49:30;;;;;;;7.65;4.03;;;;;;;;;;2061216;28;20130;-49
2024/03/19 03:50:31;;;;;;;6.25;3.83;;;;;;;;;;2061486;28;20488;-50
2024/03/19 03:51:32;;;;;;;5.75;4.00;;;;;;;;;;2060912;28;20025;-50
2024/03/19 03:52:34;;;;;;;7.28;4.07;;;;;;;;;;2058921;28;20057;-49
2024/03/19 03:53:35;;;;;;;6.10;3.65;;;;;;;;;;2049616;28;20058;-50
2024/03/19 03:54:37;;;;;;;6.65;3.70;;;;;;;;;;2061531;28;20742;-48
2024/03/19 03:55:38;;;;;;;8.55;4.35;;;;;;;;;;2059763;28;20061;-48
2024/03/19 03:56:40;;;;;;;8.52;3.83;;;;;;;;;;2063099;28;20101;-49
2024/03/19 03:57:41;;;;;;;5.40;3.65;;;;;;;;;;2061926;28;20109;-48
2024/03/19 03:58:42;;;;;;;6.00;3.45;;;;;;;;;;2060209;28;20029;-49
2024/03/19 03:59:44;;;;;;;7.50;4.00;;;;;;;;;;2061885;28;20144;-51
2024/03/19 04:00:45;;;;;;;4.90;3.58;;;;;;;;;;2060851;28;20473;-49
2024/03/19 04:01:47;;;;;;;8.43;4.18;;;;;;;;;;2061811;28;20034;-48
2024/03/19 04:02:48;;;;;;;6.60;4.03;;;;;;;;;;2058685;28;20023;-47
2024/03/19 04:03:50;;;;;;;7.00;3.92;;;;;;;;;;2058318;28;20421;-47
2024/03/19 04:04:54;;;;;;;6.90;4.00;;;;;;;;;;2052507;28;20015;-48
2024/03/19 04:05:56;;;;;;;7.18;4.30;;;;;;;;;;2057297;28;20054;-47
2024/03/19 04:06:57;;;;;;;6.18;4.03;;;;;;;;;;2062518;28;20037;-49
2024/03/19 04:07:58;;;;;;;5.25;4.00;;;;;;;;;;2057110;28;20030;-48
2024/03/19 04:09:00;;;;;;;7.03;4.50;;;;;;;;;;2057345;28;20019;-48
2024/03/19 04:10:02;;;;;;;8.55;4.57;;;;;;;;;;2061675;28;20057;-47
2024/03/19 04:11:03;;;;;;;5.43;3.70;;;;;;;;;;2064737;28;20548;-48
2024/03/19 04:12:05;;;;;;;7.10;4.32;;;;;;;;;;2061714;28;20048;-47
2024/03/19 04:13:06;;;;;;;5.65;4.10;;;;;;;;;;2059504;28;20058;-47
2024/03/19 04:14:07;;;;;;;8.60;4.63;;;;;;;;;;2062564;28;20034;-48
2024/03/19 04:15:10;;;;;;;7.25;4.20;;;;;;;;;;2061684;28;20058;-47
2024/03/19 04:16:12;;;;;;;9.88;4.57;;;;;;;;;;2058365;28;20038;-47
2024/03/19 04:17:13;;;;;;;9.93;4.43;;;;;;;;;;2058820;28;20014;-48
2024/03/19 04:18:14;;;;;;;6.40;3.97;;;;;;;;;;2062101;28;20026;-47
2024/03/19 04:19:15;;;;;;;8.90;4.82;;;;;;;;;;2060136;28;20088;-48
2024/03/19 04:20:20;;;;;;;8.18;4.28;;;;;;;;;;2061061;28;20041;-48
2024/03/19 04:21:21;;;;;;;7.03;4.55;;;;;;;;;;2057496;28;20131;-47
2024/03/19 04:22:22;;;;;;;6.30;4.15;;;;;;;;;;2059258;28;20033;-47
2024/03/19 04:23:24;;;;;;;6.43;4.38;;;;;;;;;;2060672;28;20465;-48
2024/03/19 04:24:26;;;;;;;5.57;4.20;;;;;;;;;;2058495;28;20504;-48
2024/03/19 04:25:27;;;;;;;6.97;4.38;;;;;;;;;;2058353;28;20066;-47
2024/03/19 04:26:29;;;;;;;7.03;4.43;;;;;;;;;;2063939;28;20919;-48
2024/03/19 04:27:31;;;;;;;7.82;3.67;;;;;;;;;;2060422;28;20094;-48
2024/03/19 04:28:32;;;;;;;6.60;4.68;;;;;;;;;;2059098;28;20081;-48
2024/03/19 04:29:34;;;;;;;5.55;3.70;;;;;;;;;;2064071;28;20038;-49
2024/03/19 04:30:35;;;;;;;5.15;3.50;;;;;;;;;;2060762;28;20137;-47
2024/03/19 04:31:37;;;;;;;5.55;3.80;;;;;;;;;;2061120;28;20034;-47
2024/03/19 04:32:38;;;;;;;8.60;4.25;;;;;;;;;;2062376;28;20558;-48
2024/03/19 04:33:39;;;;;;;6.70;3.75;;;;;;;;;;2062299;28;20034;-48
2024/03/19 04:34:41;;;;;;;8.15;4.57;;;;;;;;;;2064328;28;20069;-47
2024/03/19 04:35:42;;;;;;;7.68;3.72;;;;;;;;;;2059097;28;20062;-47
2024/03/19 04:36:43;;;;;;;6.45;4.40;;;;;;;;;;2059046;28;20038;-47
2024/03/19 04:37:45;;;;;;;7.93;4.15;;;;;;;;;;2062233;28;20516;-47
2024/03/19 04:38:46;;;;;;;7.88;4.32;;;;;;;;;;2061289;28;20481;-47
2024/03/19 04:39:47;;;;;;;7.05;4.03;;;;;;;;;;2059860;28;20054;-47
2024/03/19 04:40:49;;;;;;;5.95;4.00;;;;;;;;;;2060751;28;20015;-48
2024/03/19 04:41:50;;;;;;;4.90;3.65;;;;;;;;;;2060019;28;20023;-49
2024/03/19 04:42:51;;;;;;;6.40;4.38;;;;;;;;;;2064002;28;20108;-48
2024/03/19 04:43:53;;;;;;;6.35;3.95;;;;;;;;;;2057741;28;20018;-47
2024/03/19 04:44:54;;;;;;;5.30;3.53;;;;;;;;;;2058052;28;20034;-47
2024/03/19 04:45:55;;;;;;;5.00;3.70;;;;;;;;;;2060758;28;20034;-49
2024/03/19 04:46:57;;;;;;;6.03;4.05;;;;;;;;;;2059851;28;20069;-48
2024/03/19 04:47:58;;;;;;;6.75;3.78;;;;;;;;;;2062667;28;20026;-48
2024/03/19 04:48:59;;;;;;;7.93;4.32;;;;;;;;;;2060610;28;20073;-49
2024/03/19 04:50:01;;;;;;;6.75;3.97;;;;;;;;;;2060145;28;20035;-48
2024/03/19 04:51:02;;;;;;;6.30;3.97;;;;;;;;;;2063060;28;20030;-49
2024/03/19 04:52:03;;;;;;;7.53;3.80;;;;;;;;;;2057929;28;20516;-48
2024/03/19 04:53:06;;;;;;;8.40;3.70;;;;;;;;;;2061008;28;20038;-48
2024/03/19 04:54:07;;;;;;;5.72;3.85;;;;;;;;;;2060828;28;20050;-48
2024/03/19 04:55:10;;;;;;;7.07;3.50;;;;;;;;;;2061316;28;20620;-47
2024/03/19 04:56:11;;;;;;;6.63;3.70;;;;;;;;;;2061674;28;20058;-47
2024/03/19 04:57:13;;;;;;;6.03;3.58;;;;;;;;;;2062615;28;20125;-48
2024/03/19 04:58:15;;;;;;;8.13;3.95;;;;;;;;;;2059718;28;20038;-48
2024/03/19 04:59:17;;;;;;;7.32;3.55;;;;;;;;;;2064391;28;20031;-48
2024/03/19 05:00:18;;;;;;;7.82;4.30;;;;;;;;;;2059271;28;20027;-49
2024/03/19 05:01:19;;;;;;;7.75;4.00;;;;;;;;;;2060099;28;20022;-52
2024/03/19 05:02:21;;;;;;;6.82;3.92;;;;;;;;;;2061802;28;20031;-53
2024/03/19 05:03:22;;;;;;;6.28;4.47;;;;;;;;;;2059933;28;20023;-48
2024/03/19 05:04:23;;;;;;;4.78;3.60;;;;;;;;;;2061710;28;20032;-52
2024/03/19 05:05:24;;;;;;;5.15;3.72;;;;;;;;;;2058456;28;20007;-53
2024/03/19 05:06:26;;;;;;;6.03;3.75;;;;;;;;;;2059223;28;20062;-53
2024/03/19 05:07:28;;;;;;;5.45;3.72;;;;;;;;;;2062869;28;20026;-53
2024/03/19 05:08:30;;;;;;;5.53;3.70;;;;;;;;;;2059823;28;20022;-52
2024/03/19 05:09:32;;;;;;;4.82;3.47;;;;;;;;;;2060688;28;20042;-53
2024/03/19 05:10:33;;;;;;;4.60;3.25;;;;;;;;;;2061629;28;20049;-52
2024/03/19 05:11:35;;;;;;;6.03;4.00;;;;;;;;;;2056896;28;22011;-52
2024/03/19 05:12:36;;;;;;;7.13;4.22;;;;;;;;;;2059391;28;20026;-52
2024/03/19 05:13:37;;;;;;;8.75;3.75;;;;;;;;;;2062131;28;20022;-56
2024/03/19 05:14:40;;;;;;;4.93;3.60;;;;;;;;;;2060866;28;20453;-53
2024/03/19 05:15:41;;;;;;;4.90;3.50;;;;;;;;;;2063300;28;20023;-53
2024/03/19 05:16:42;;;;;;;7.55;3.85;;;;;;;;;;2061166;28;20045;-48
2024/03/19 05:17:44;;;;;;;5.43;3.65;;;;;;;;;;2060782;28;20056;-48
2024/03/19 05:18:45;;;;;;;6.15;3.63;;;;;;;;;;2059622;28;20390;-49
2024/03/19 05:19:46;;;;;;;7.13;3.70;;;;;;;;;;2061312;28;20039;-47
2024/03/19 05:20:48;;;;;;;4.40;3.28;;;;;;;;;;2059884;28;20027;-50
2024/03/19 05:21:49;;;;;;;4.25;3.42;;;;;;;;;;2054613;28;20078;-50
2024/03/19 05:22:51;;;;;;;5.60;3.63;;;;;;;;;;2051791;28;20019;-49
2024/03/19 05:23:52;;;;;;;6.60;4.03;;;;;;;;;;2057344;28;20022;-49
2024/03/19 05:24:53;;;;;;;6.00;3.78;;;;;;;;;;2059034;28;20166;-47
2024/03/19 05:25:56;;;;;;;6.63;3.72;;;;;;;;;;2055771;28;20027;-49
2024/03/19 05:26:57;;;;;;;5.75;3.70;;;;;;;;;;2050289;28;20027;-49
2024/03/19 05:27:58;;;;;;;6.32;3.92;;;;;;;;;;2061615;28;20142;-49
2024/03/19 05:29:00;;;;;;;4.40;3.60;;;;;;;;;;2059837;28;20553;-50
2024/03/19 05:30:02;;;;;;;6.80;4.45;;;;;;;;;;2059834;28;20469;-49
2024/03/19 05:31:18;;;;;;;4.85;4.00;;;;;;;;;;2060474;28;20035;-48
2024/03/19 05:32:20;;;;;;;7.65;4.10;;;;;;;;;;2058857;28;20034;-46
2024/03/19 05:33:21;;;;;;;6.97;4.30;;;;;;;;;;2058591;28;20019;-49
2024/03/19 05:34:22;;;;;;;5.90;4.00;;;;;;;;;;2063194;28;20092;-50
2024/03/19 05:35:25;;;;;;;5.53;3.83;;;;;;;;;;2063444;28;20589;-46
2024/03/19 05:36:26;;;;;;;4.28;3.65;;;;;;;;;;2056916;28;20031;-49
2024/03/19 05:37:28;;;;;;;6.93;4.10;;;;;;;;;;2059782;28;20041;-48
2024/03/19 05:38:29;;;;;;;6.60;3.63;;;;;;;;;;2063118;28;20026;-48
2024/03/19 05:39:30;;;;;;;7.95;3.72;;;;;;;;;;2061812;28;20026;-48
2024/03/19 05:40:32;;;;;;;5.65;4.40;;;;;;;;;;2060783;28;20117;-47
2024/03/19 05:41:33;;;;;;;8.15;3.60;;;;;;;;;;2059875;28;20077;-49
2024/03/19 05:42:34;;;;;;;7.13;3.60;;;;;;;;;;2062842;28;20103;-47
2024/03/19 05:43:36;;;;;;;7.88;3.80;;;;;;;;;;2062497;28;20030;-48
2024/03/19 05:44:37;;;;;;;8.63;4.85;;;;;;;;;;2060099;28;20023;-50
2024/03/19 05:45:38;;;;;;;7.72;4.35;;;;;;;;;;2062094;28;20028;-50
2024/03/19 05:46:40;;;;;;;9.15;4.18;;;;;;;;;;2059366;28;20466;-49
2024/03/19 05:47:41;;;;;;;7.60;3.95;;;;;;;;;;2061745;28;20026;-48
2024/03/19 05:48:42;;;;;;;6.93;4.20;;;;;;;;;;2063269;28;20042;-50
2024/03/19 05:49:44;;;;;;;6.22;3.72;;;;;;;;;;2060470;28;20027;-49
2024/03/19 05:50:45;;;;;;;7.18;3.92;;;;;;;;;;2059394;28;20023;-47
2024/03/19 05:51:47;;;;;;;7.40;4.50;;;;;;;;;;2061746;28;20047;-49
2024/03/19 05:52:48;;;;;;;9.75;4.35;;;;;;;;;;2059326;28;20095;-49
2024/03/19 05:53:50;;;;;;;7.72;4.07;;;;;;;;;;2060191;28;20015;-49
2024/03/19 05:54:51;;;;;;;5.95;3.65;;;;;;;;;;2058711;28;20119;-49
2024/03/19 05:55:52;;;;;;;5.20;3.88;;;;;;;;;;2062191;28;20041;-50
2024/03/19 05:56:54;;;;;;;7.10;4.25;;;;;;;;;;2061795;28;20443;-50
2024/03/19 05:57:55;;;;;;;8.60;4.40;;;;;;;;;;2059054;28;20049;-49
2024/03/19 05:58:56;;;;;;;5.28;3.85;;;;;;;;;;2056678;28;20669;-48
2024/03/19 05:59:58;;;;;;;11.32;4.72;;;;;;;;;;2053615;28;20026;-47
2024/03/19 06:01:00;;;;;;;6.88;4.18;;;;;;;;;;2062631;28;20023;-51
2024/03/19 06:02:05;;;;;;;9.27;4.03;;;;;;;;;;2060138;28;20027;-50
2024/03/19 06:03:07;;;;;;;4.90;4.00;;;;;;;;;;2056997;28;20022;-48
2024/03/19 06:04:08;;;;;;;5.90;3.80;;;;;;;;;;2062675;28;20022;-49
2024/03/19 06:05:09;;;;;;;9.48;4.70;;;;;;;;;;2061104;28;20544;-50
2024/03/19 06:06:11;;;;;;;5.45;3.63;;;;;;;;;;2061373;28;20034;-50
2024/03/19 06:07:12;;;;;;;8.23;4.30;;;;;;;;;;2062775;28;20038;-48
2024/03/19 06:08:14;;;;;;;6.28;4.20;;;;;;;;;;2061243;28;20073;-48
2024/03/19 06:09:15;;;;;;;6.65;4.45;;;;;;;;;;2060153;28;20073;-48
2024/03/19 06:10:17;;;;;;;6.63;3.92;;;;;;;;;;2059053;28;20038;-46
2024/03/19 06:11:18;;;;;;;6.45;3.97;;;;;;;;;;2058737;28;20031;-47